sensor_id;sensor_type;location;lat;lon;timestamp;P1;durP1;ratioP1;P2;durP2;ratioP2
7213;SDS011;3648;50.614;13.830;2022-07-23T00:01:11;4.70;;;4.30;;
7213;SDS011;3648;50.614;13.830;2022-07-23T00:03:38;4.50;;;4.10;;
7213;SDS011;3648;50.614;13.830;2022-07-23T00:06:06;5.00;;;4.53;;
7213;SDS011;3648;50.614;13.830;2022-07-23T00:08:33;5.47;;;5.00;;
7213;SDS011;3648;50.614;13.830;2022-07-23T00:10:59;5.47;;;4.97;;
7213;SDS011;3648;50.614;13.830;2022-07-23T00:13:28;5.00;;;4.60;;
7213;SDS011;3648;50.614;13.830;2022-07-23T00:15:55;5.93;;;5.27;;
7213;SDS011;3648;50.614;13.830;2022-07-23T00:18:22;4.97;;;4.57;;
7213;SDS011;3648;50.614;13.830;2022-07-23T00:20:49;5.33;;;4.83;;
7213;SDS011;3648;50.614;13.830;2022-07-23T00:23:17;4.77;;;4.37;;
7213;SDS011;3648;50.614;13.830;2022-07-23T00:25:44;4.67;;;4.27;;
7213;SDS011;3648;50.614;13.830;2022-07-23T00:28:11;5.00;;;4.43;;
7213;SDS011;3648;50.614;13.830;2022-07-23T00:30:39;4.50;;;4.10;;
7213;SDS011;3648;50.614;13.830;2022-07-23T00:33:06;4.17;;;3.83;;
7213;SDS011;3648;50.614;13.830;2022-07-23T00:35:34;5.73;;;5.13;;
7213;SDS011;3648;50.614;13.830;2022-07-23T00:38:05;5.20;;;4.80;;
7213;SDS011;3648;50.614;13.830;2022-07-23T00:40:33;5.37;;;4.87;;
7213;SDS011;3648;50.614;13.830;2022-07-23T00:43:01;5.60;;;5.10;;
7213;SDS011;3648;50.614;13.830;2022-07-23T00:45:28;5.17;;;4.73;;
7213;SDS011;3648;50.614;13.830;2022-07-23T00:47:57;4.90;;;4.50;;
7213;SDS011;3648;50.614;13.830;2022-07-23T00:50:24;5.07;;;4.60;;
7213;SDS011;3648;50.614;13.830;2022-07-23T00:52:51;5.03;;;4.63;;
7213;SDS011;3648;50.614;13.830;2022-07-23T00:55:18;6.17;;;4.70;;
7213;SDS011;3648;50.614;13.830;2022-07-23T00:57:45;6.60;;;4.40;;
7213;SDS011;3648;50.614;13.830;2022-07-23T01:00:14;4.33;;;3.93;;
7213;SDS011;3648;50.614;13.830;2022-07-23T01:02:42;4.50;;;4.10;;
7213;SDS011;3648;50.614;13.830;2022-07-23T01:05:10;4.90;;;4.50;;
7213;SDS011;3648;50.614;13.830;2022-07-23T01:07:38;6.50;;;4.80;;
7213;SDS011;3648;50.614;13.830;2022-07-23T01:10:05;15.83;;;5.40;;
7213;SDS011;3648;50.614;13.830;2022-07-23T01:12:53;5.30;;;4.83;;
7213;SDS011;3648;50.614;13.830;2022-07-23T01:15:21;5.50;;;4.80;;
7213;SDS011;3648;50.614;13.830;2022-07-23T01:17:48;4.63;;;4.33;;
7213;SDS011;3648;50.614;13.830;2022-07-23T01:20:17;4.97;;;4.50;;
7213;SDS011;3648;50.614;13.830;2022-07-23T01:22:45;5.60;;;4.13;;
7213;SDS011;3648;50.614;13.830;2022-07-23T01:25:12;4.70;;;4.30;;
7213;SDS011;3648;50.614;13.830;2022-07-23T01:27:40;5.20;;;4.70;;
7213;SDS011;3648;50.614;13.830;2022-07-23T01:30:07;5.07;;;4.53;;
7213;SDS011;3648;50.614;13.830;2022-07-23T01:32:35;4.83;;;4.43;;
7213;SDS011;3648;50.614;13.830;2022-07-23T01:35:02;5.13;;;4.63;;
7213;SDS011;3648;50.614;13.830;2022-07-23T01:37:30;4.90;;;4.27;;
7213;SDS011;3648;50.614;13.830;2022-07-23T01:39:58;5.07;;;4.40;;
7213;SDS011;3648;50.614;13.830;2022-07-23T01:42:25;4.73;;;4.33;;
7213;SDS011;3648;50.614;13.830;2022-07-23T01:44:52;5.93;;;5.27;;
7213;SDS011;3648;50.614;13.830;2022-07-23T01:47:19;5.13;;;4.63;;
7213;SDS011;3648;50.614;13.830;2022-07-23T01:49:46;4.87;;;4.47;;
7213;SDS011;3648;50.614;13.830;2022-07-23T01:52:13;5.20;;;4.30;;
7213;SDS011;3648;50.614;13.830;2022-07-23T01:54:40;5.80;;;4.87;;
7213;SDS011;3648;50.614;13.830;2022-07-23T01:57:08;4.90;;;4.37;;
7213;SDS011;3648;50.614;13.830;2022-07-23T01:59:35;4.83;;;4.33;;
7213;SDS011;3648;50.614;13.830;2022-07-23T02:02:04;6.40;;;4.30;;
7213;SDS011;3648;50.614;13.830;2022-07-23T02:04:31;4.83;;;4.43;;
7213;SDS011;3648;50.614;13.830;2022-07-23T02:07:01;6.13;;;4.67;;
7213;SDS011;3648;50.614;13.830;2022-07-23T02:09:29;4.40;;;4.00;;
7213;SDS011;3648;50.614;13.830;2022-07-23T02:11:56;4.73;;;4.33;;
7213;SDS011;3648;50.614;13.830;2022-07-23T02:14:24;4.73;;;4.33;;
7213;SDS011;3648;50.614;13.830;2022-07-23T02:16:51;4.80;;;4.40;;
7213;SDS011;3648;50.614;13.830;2022-07-23T02:19:18;4.57;;;4.17;;
7213;SDS011;3648;50.614;13.830;2022-07-23T02:21:45;4.80;;;4.40;;
7213;SDS011;3648;50.614;13.830;2022-07-23T02:24:12;5.20;;;4.70;;
7213;SDS011;3648;50.614;13.830;2022-07-23T02:26:39;4.50;;;3.90;;
7213;SDS011;3648;50.614;13.830;2022-07-23T02:29:06;5.03;;;4.53;;
7213;SDS011;3648;50.614;13.830;2022-07-23T02:31:34;5.07;;;4.67;;
7213;SDS011;3648;50.614;13.830;2022-07-23T02:34:01;5.33;;;4.87;;
7213;SDS011;3648;50.614;13.830;2022-07-23T02:36:28;5.70;;;4.90;;
7213;SDS011;3648;50.614;13.830;2022-07-23T02:38:55;4.70;;;4.30;;
7213;SDS011;3648;50.614;13.830;2022-07-23T02:41:23;5.00;;;4.57;;
7213;SDS011;3648;50.614;13.830;2022-07-23T02:43:50;4.80;;;4.40;;
7213;SDS011;3648;50.614;13.830;2022-07-23T02:46:17;4.67;;;4.27;;
7213;SDS011;3648;50.614;13.830;2022-07-23T02:48:45;5.47;;;4.97;;
7213;SDS011;3648;50.614;13.830;2022-07-23T02:51:12;4.80;;;4.27;;
7213;SDS011;3648;50.614;13.830;2022-07-23T02:53:39;4.50;;;4.20;;
7213;SDS011;3648;50.614;13.830;2022-07-23T02:56:06;4.87;;;4.47;;
7213;SDS011;3648;50.614;13.830;2022-07-23T02:58:33;5.23;;;4.73;;
7213;SDS011;3648;50.614;13.830;2022-07-23T03:01:01;5.30;;;4.90;;
7213;SDS011;3648;50.614;13.830;2022-07-23T03:03:28;6.43;;;4.80;;
7213;SDS011;3648;50.614;13.830;2022-07-23T03:05:57;5.40;;;4.90;;
7213;SDS011;3648;50.614;13.830;2022-07-23T03:08:24;4.90;;;4.27;;
7213;SDS011;3648;50.614;13.830;2022-07-23T03:10:51;5.50;;;5.00;;
7213;SDS011;3648;50.614;13.830;2022-07-23T03:13:18;5.40;;;4.90;;
7213;SDS011;3648;50.614;13.830;2022-07-23T03:15:45;5.40;;;4.90;;
7213;SDS011;3648;50.614;13.830;2022-07-23T03:18:11;4.90;;;4.40;;
7213;SDS011;3648;50.614;13.830;2022-07-23T03:20:38;5.60;;;5.10;;
7213;SDS011;3648;50.614;13.830;2022-07-23T03:23:07;5.47;;;4.60;;
7213;SDS011;3648;50.614;13.830;2022-07-23T03:25:34;4.90;;;4.40;;
7213;SDS011;3648;50.614;13.830;2022-07-23T03:28:01;5.70;;;5.30;;
7213;SDS011;3648;50.614;13.830;2022-07-23T03:30:28;6.50;;;5.37;;
7213;SDS011;3648;50.614;13.830;2022-07-23T03:32:55;6.90;;;6.20;;
7213;SDS011;3648;50.614;13.830;2022-07-23T03:35:22;7.73;;;6.20;;
7213;SDS011;3648;50.614;13.830;2022-07-23T03:37:49;6.83;;;6.23;;
7213;SDS011;3648;50.614;13.830;2022-07-23T03:40:17;6.77;;;6.17;;
7213;SDS011;3648;50.614;13.830;2022-07-23T03:42:44;8.00;;;6.57;;
7213;SDS011;3648;50.614;13.830;2022-07-23T03:45:11;7.00;;;6.23;;
7213;SDS011;3648;50.614;13.830;2022-07-23T03:47:38;7.00;;;6.27;;
7213;SDS011;3648;50.614;13.830;2022-07-23T03:50:05;9.23;;;6.87;;
7213;SDS011;3648;50.614;13.830;2022-07-23T03:52:33;7.43;;;6.73;;
7213;SDS011;3648;50.614;13.830;2022-07-23T03:55:00;10.47;;;7.60;;
7213;SDS011;3648;50.614;13.830;2022-07-23T03:57:28;8.47;;;7.07;;
7213;SDS011;3648;50.614;13.830;2022-07-23T03:59:55;7.50;;;6.70;;
7213;SDS011;3648;50.614;13.830;2022-07-23T04:02:22;7.90;;;7.20;;
7213;SDS011;3648;50.614;13.830;2022-07-23T04:04:49;7.23;;;6.60;;
7213;SDS011;3648;50.614;13.830;2022-07-23T04:07:16;7.33;;;6.40;;
7213;SDS011;3648;50.614;13.830;2022-07-23T04:09:43;7.10;;;6.47;;
7213;SDS011;3648;50.614;13.830;2022-07-23T04:12:10;5.87;;;5.43;;
7213;SDS011;3648;50.614;13.830;2022-07-23T04:14:38;5.23;;;4.83;;
7213;SDS011;3648;50.614;13.830;2022-07-23T04:17:05;6.20;;;5.70;;
7213;SDS011;3648;50.614;13.830;2022-07-23T04:19:33;5.27;;;4.80;;
7213;SDS011;3648;50.614;13.830;2022-07-23T04:22:01;6.27;;;5.67;;
7213;SDS011;3648;50.614;13.830;2022-07-23T04:24:28;5.87;;;5.30;;
7213;SDS011;3648;50.614;13.830;2022-07-23T04:26:55;6.60;;;6.10;;
7213;SDS011;3648;50.614;13.830;2022-07-23T04:29:22;6.33;;;5.70;;
7213;SDS011;3648;50.614;13.830;2022-07-23T04:31:51;6.23;;;5.63;;
7213;SDS011;3648;50.614;13.830;2022-07-23T04:34:18;6.60;;;5.70;;
7213;SDS011;3648;50.614;13.830;2022-07-23T04:36:45;6.23;;;5.70;;
7213;SDS011;3648;50.614;13.830;2022-07-23T04:39:12;5.80;;;5.17;;
7213;SDS011;3648;50.614;13.830;2022-07-23T04:41:40;6.37;;;5.73;;
7213;SDS011;3648;50.614;13.830;2022-07-23T04:44:07;6.73;;;6.07;;
7213;SDS011;3648;50.614;13.830;2022-07-23T04:46:33;6.47;;;5.83;;
7213;SDS011;3648;50.614;13.830;2022-07-23T04:49:02;5.50;;;5.10;;
7213;SDS011;3648;50.614;13.830;2022-07-23T04:51:29;6.10;;;5.60;;
7213;SDS011;3648;50.614;13.830;2022-07-23T04:53:56;5.70;;;5.20;;
7213;SDS011;3648;50.614;13.830;2022-07-23T04:56:23;6.33;;;5.73;;
7213;SDS011;3648;50.614;13.830;2022-07-23T04:58:50;6.37;;;5.80;;
7213;SDS011;3648;50.614;13.830;2022-07-23T05:01:17;6.03;;;5.53;;
7213;SDS011;3648;50.614;13.830;2022-07-23T05:03:44;5.60;;;5.20;;
7213;SDS011;3648;50.614;13.830;2022-07-23T05:06:12;6.30;;;5.70;;
7213;SDS011;3648;50.614;13.830;2022-07-23T05:08:39;6.30;;;5.63;;
7213;SDS011;3648;50.614;13.830;2022-07-23T05:11:05;6.37;;;5.47;;
7213;SDS011;3648;50.614;13.830;2022-07-23T05:13:32;6.23;;;5.73;;
7213;SDS011;3648;50.614;13.830;2022-07-23T05:15:59;5.90;;;5.40;;
7213;SDS011;3648;50.614;13.830;2022-07-23T05:18:26;6.23;;;5.63;;
7213;SDS011;3648;50.614;13.830;2022-07-23T05:20:53;6.13;;;5.47;;
7213;SDS011;3648;50.614;13.830;2022-07-23T05:23:22;6.47;;;5.90;;
7213;SDS011;3648;50.614;13.830;2022-07-23T05:25:49;6.60;;;6.00;;
7213;SDS011;3648;50.614;13.830;2022-07-23T05:28:16;6.80;;;6.10;;
7213;SDS011;3648;50.614;13.830;2022-07-23T05:30:43;6.97;;;6.47;;
7213;SDS011;3648;50.614;13.830;2022-07-23T05:33:10;7.00;;;6.40;;
7213;SDS011;3648;50.614;13.830;2022-07-23T05:35:37;6.83;;;6.20;;
7213;SDS011;3648;50.614;13.830;2022-07-23T05:38:03;9.23;;;6.47;;
7213;SDS011;3648;50.614;13.830;2022-07-23T05:40:32;7.37;;;6.50;;
7213;SDS011;3648;50.614;13.830;2022-07-23T05:42:59;7.60;;;6.80;;
7213;SDS011;3648;50.614;13.830;2022-07-23T05:45:26;7.23;;;6.53;;
7213;SDS011;3648;50.614;13.830;2022-07-23T05:47:53;9.23;;;6.63;;
7213;SDS011;3648;50.614;13.830;2022-07-23T05:50:20;7.93;;;6.63;;
7213;SDS011;3648;50.614;13.830;2022-07-23T05:52:47;7.80;;;6.90;;
7213;SDS011;3648;50.614;13.830;2022-07-23T05:55:14;7.33;;;6.43;;
7213;SDS011;3648;50.614;13.830;2022-07-23T05:57:43;7.80;;;6.20;;
7213;SDS011;3648;50.614;13.830;2022-07-23T06:00:10;10.87;;;7.00;;
7213;SDS011;3648;50.614;13.830;2022-07-23T06:02:38;8.67;;;6.27;;
7213;SDS011;3648;50.614;13.830;2022-07-23T06:05:05;7.57;;;6.37;;
7213;SDS011;3648;50.614;13.830;2022-07-23T06:07:34;6.90;;;6.20;;
7213;SDS011;3648;50.614;13.830;2022-07-23T06:10:01;8.13;;;6.47;;
7213;SDS011;3648;50.614;13.830;2022-07-23T06:12:29;6.23;;;5.63;;
7213;SDS011;3648;50.614;13.830;2022-07-23T06:14:57;6.30;;;5.70;;
7213;SDS011;3648;50.614;13.830;2022-07-23T06:17:24;7.33;;;6.63;;
7213;SDS011;3648;50.614;13.830;2022-07-23T06:19:51;7.33;;;6.57;;
7213;SDS011;3648;50.614;13.830;2022-07-23T06:22:19;6.93;;;5.57;;
7213;SDS011;3648;50.614;13.830;2022-07-23T06:24:46;6.50;;;5.90;;
7213;SDS011;3648;50.614;13.830;2022-07-23T06:27:13;7.00;;;6.40;;
7213;SDS011;3648;50.614;13.830;2022-07-23T06:29:40;6.83;;;6.17;;
7213;SDS011;3648;50.614;13.830;2022-07-23T06:32:09;6.97;;;6.27;;
7213;SDS011;3648;50.614;13.830;2022-07-23T06:34:36;7.00;;;6.40;;
7213;SDS011;3648;50.614;13.830;2022-07-23T06:37:03;6.90;;;6.27;;
7213;SDS011;3648;50.614;13.830;2022-07-23T06:39:30;8.67;;;6.50;;
7213;SDS011;3648;50.614;13.830;2022-07-23T06:41:57;7.97;;;6.87;;
7213;SDS011;3648;50.614;13.830;2022-07-23T06:44:26;7.63;;;6.10;;
7213;SDS011;3648;50.614;13.830;2022-07-23T06:46:53;7.70;;;6.90;;
7213;SDS011;3648;50.614;13.830;2022-07-23T06:49:22;7.90;;;7.10;;
7213;SDS011;3648;50.614;13.830;2022-07-23T06:51:49;7.57;;;6.87;;
7213;SDS011;3648;50.614;13.830;2022-07-23T06:54:16;7.33;;;6.60;;
7213;SDS011;3648;50.614;13.830;2022-07-23T06:56:43;11.40;;;7.07;;
7213;SDS011;3648;50.614;13.830;2022-07-23T06:59:10;7.57;;;6.80;;
7213;SDS011;3648;50.614;13.830;2022-07-23T07:01:37;7.10;;;6.40;;
7213;SDS011;3648;50.614;13.830;2022-07-23T07:04:04;7.00;;;6.30;;
7213;SDS011;3648;50.614;13.830;2022-07-23T07:06:33;8.23;;;6.77;;
7213;SDS011;3648;50.614;13.830;2022-07-23T07:09:00;7.03;;;6.33;;
7213;SDS011;3648;50.614;13.830;2022-07-23T07:11:27;6.90;;;6.20;;
7213;SDS011;3648;50.614;13.830;2022-07-23T07:13:54;7.73;;;6.23;;
7213;SDS011;3648;50.614;13.830;2022-07-23T07:16:21;7.03;;;6.33;;
7213;SDS011;3648;50.614;13.830;2022-07-23T07:18:48;10.33;;;6.93;;
7213;SDS011;3648;50.614;13.830;2022-07-23T07:21:15;8.20;;;6.50;;
7213;SDS011;3648;50.614;13.830;2022-07-23T07:23:43;7.70;;;6.90;;
7213;SDS011;3648;50.614;13.830;2022-07-23T07:26:10;8.83;;;7.70;;
7213;SDS011;3648;50.614;13.830;2022-07-23T07:28:37;8.23;;;7.47;;
7213;SDS011;3648;50.614;13.830;2022-07-23T07:31:04;9.20;;;7.83;;
7213;SDS011;3648;50.614;13.830;2022-07-23T07:33:32;8.60;;;7.90;;
7213;SDS011;3648;50.614;13.830;2022-07-23T07:35:59;9.00;;;8.20;;
7213;SDS011;3648;50.614;13.830;2022-07-23T07:38:26;9.77;;;8.70;;
7213;SDS011;3648;50.614;13.830;2022-07-23T07:40:55;9.10;;;8.30;;
7213;SDS011;3648;50.614;13.830;2022-07-23T07:43:22;8.50;;;7.80;;
7213;SDS011;3648;50.614;13.830;2022-07-23T07:45:49;8.60;;;7.77;;
7213;SDS011;3648;50.614;13.830;2022-07-23T07:48:16;9.03;;;8.23;;
7213;SDS011;3648;50.614;13.830;2022-07-23T07:50:43;8.70;;;7.77;;
7213;SDS011;3648;50.614;13.830;2022-07-23T07:53:10;9.40;;;8.60;;
7213;SDS011;3648;50.614;13.830;2022-07-23T07:55:37;8.90;;;8.10;;
7213;SDS011;3648;50.614;13.830;2022-07-23T07:58:06;7.80;;;7.10;;
7213;SDS011;3648;50.614;13.830;2022-07-23T08:00:33;8.40;;;7.53;;
7213;SDS011;3648;50.614;13.830;2022-07-23T08:03:00;8.40;;;7.70;;
7213;SDS011;3648;50.614;13.830;2022-07-23T08:05:27;8.83;;;8.13;;
7213;SDS011;3648;50.614;13.830;2022-07-23T08:07:55;8.43;;;7.73;;
7213;SDS011;3648;50.614;13.830;2022-07-23T08:10:24;8.03;;;7.33;;
7213;SDS011;3648;50.614;13.830;2022-07-23T08:12:52;9.33;;;7.70;;
7213;SDS011;3648;50.614;13.830;2022-07-23T08:15:23;9.13;;;7.93;;
7213;SDS011;3648;50.614;13.830;2022-07-23T08:17:51;8.67;;;7.90;;
7213;SDS011;3648;50.614;13.830;2022-07-23T08:20:19;8.53;;;7.10;;
7213;SDS011;3648;50.614;13.830;2022-07-23T08:22:48;8.47;;;7.70;;
7213;SDS011;3648;50.614;13.830;2022-07-23T08:25:19;9.70;;;8.10;;
7213;SDS011;3648;50.614;13.830;2022-07-23T08:27:47;8.70;;;7.90;;
7213;SDS011;3648;50.614;13.830;2022-07-23T08:30:15;9.13;;;8.23;;
7213;SDS011;3648;50.614;13.830;2022-07-23T08:32:55;8.83;;;8.03;;
7213;SDS011;3648;50.614;13.830;2022-07-23T08:35:25;8.37;;;7.57;;
7213;SDS011;3648;50.614;13.830;2022-07-23T08:37:54;9.50;;;8.60;;
7213;SDS011;3648;50.614;13.830;2022-07-23T08:40:21;9.17;;;8.47;;
7213;SDS011;3648;50.614;13.830;2022-07-23T08:42:49;8.87;;;8.17;;
7213;SDS011;3648;50.614;13.830;2022-07-23T08:45:17;9.90;;;8.30;;
7213;SDS011;3648;50.614;13.830;2022-07-23T08:47:48;9.23;;;8.43;;
7213;SDS011;3648;50.614;13.830;2022-07-23T08:50:17;9.93;;;8.40;;
7213;SDS011;3648;50.614;13.830;2022-07-23T08:52:45;9.57;;;8.77;;
7213;SDS011;3648;50.614;13.830;2022-07-23T08:55:15;10.30;;;9.40;;
7213;SDS011;3648;50.614;13.830;2022-07-23T08:57:42;9.63;;;8.83;;
7213;SDS011;3648;50.614;13.830;2022-07-23T09:00:10;10.00;;;9.10;;
7213;SDS011;3648;50.614;13.830;2022-07-23T09:02:38;9.17;;;8.37;;
7213;SDS011;3648;50.614;13.830;2022-07-23T09:05:07;9.63;;;8.73;;
7213;SDS011;3648;50.614;13.830;2022-07-23T09:07:38;9.33;;;8.47;;
7213;SDS011;3648;50.614;13.830;2022-07-23T09:10:42;8.30;;;7.43;;
7213;SDS011;3648;50.614;13.830;2022-07-23T09:13:31;8.80;;;7.90;;
7213;SDS011;3648;50.614;13.830;2022-07-23T09:16:00;9.17;;;8.37;;
7213;SDS011;3648;50.614;13.830;2022-07-23T09:18:33;10.47;;;8.60;;
7213;SDS011;3648;50.614;13.830;2022-07-23T09:21:14;9.37;;;8.57;;
7213;SDS011;3648;50.614;13.830;2022-07-23T09:23:45;8.77;;;8.07;;
7213;SDS011;3648;50.614;13.830;2022-07-23T09:26:17;8.33;;;7.60;;
7213;SDS011;3648;50.614;13.830;2022-07-23T09:29:06;9.03;;;8.30;;
7213;SDS011;3648;50.614;13.830;2022-07-23T09:31:42;8.47;;;7.77;;
7213;SDS011;3648;50.614;13.830;2022-07-23T09:34:11;8.53;;;7.70;;
7213;SDS011;3648;50.614;13.830;2022-07-23T09:36:40;8.87;;;8.03;;
7213;SDS011;3648;50.614;13.830;2022-07-23T09:39:10;9.33;;;8.17;;
7213;SDS011;3648;50.614;13.830;2022-07-23T09:41:39;8.60;;;7.90;;
7213;SDS011;3648;50.614;13.830;2022-07-23T09:44:11;8.40;;;7.60;;
7213;SDS011;3648;50.614;13.830;2022-07-23T09:46:41;9.97;;;8.13;;
7213;SDS011;3648;50.614;13.830;2022-07-23T09:49:12;8.47;;;7.67;;
7213;SDS011;3648;50.614;13.830;2022-07-23T09:51:51;7.87;;;7.27;;
7213;SDS011;3648;50.614;13.830;2022-07-23T09:54:22;8.20;;;7.37;;
7213;SDS011;3648;50.614;13.830;2022-07-23T09:56:51;8.30;;;7.60;;
7213;SDS011;3648;50.614;13.830;2022-07-23T09:59:22;8.93;;;7.80;;
7213;SDS011;3648;50.614;13.830;2022-07-23T10:01:52;9.00;;;7.40;;
7213;SDS011;3648;50.614;13.830;2022-07-23T10:04:21;8.47;;;7.67;;
7213;SDS011;3648;50.614;13.830;2022-07-23T10:06:50;8.90;;;8.07;;
7213;SDS011;3648;50.614;13.830;2022-07-23T10:09:23;9.33;;;8.37;;
7213;SDS011;3648;50.614;13.830;2022-07-23T10:11:57;8.70;;;7.90;;
7213;SDS011;3648;50.614;13.830;2022-07-23T10:14:32;8.07;;;7.30;;
7213;SDS011;3648;50.614;13.830;2022-07-23T10:17:00;10.90;;;7.77;;
7213;SDS011;3648;50.614;13.830;2022-07-23T10:19:28;10.27;;;7.70;;
7213;SDS011;3648;50.614;13.830;2022-07-23T10:21:56;9.30;;;7.87;;
7213;SDS011;3648;50.614;13.830;2022-07-23T10:24:30;9.50;;;7.33;;
7213;SDS011;3648;50.614;13.830;2022-07-23T10:27:14;10.53;;;9.40;;
7213;SDS011;3648;50.614;13.830;2022-07-23T10:30:09;9.37;;;7.60;;
7213;SDS011;3648;50.614;13.830;2022-07-23T10:32:42;11.30;;;8.30;;
7213;SDS011;3648;50.614;13.830;2022-07-23T10:35:17;8.50;;;7.63;;
7213;SDS011;3648;50.614;13.830;2022-07-23T10:37:51;8.17;;;7.33;;
7213;SDS011;3648;50.614;13.830;2022-07-23T10:40:24;8.00;;;7.20;;
7213;SDS011;3648;50.614;13.830;2022-07-23T10:42:51;8.03;;;7.30;;
7213;SDS011;3648;50.614;13.830;2022-07-23T10:45:25;7.90;;;7.10;;
7213;SDS011;3648;50.614;13.830;2022-07-23T10:47:53;7.90;;;7.13;;
7213;SDS011;3648;50.614;13.830;2022-07-23T10:50:22;8.43;;;6.93;;
7213;SDS011;3648;50.614;13.830;2022-07-23T10:53:08;8.57;;;7.30;;
7213;SDS011;3648;50.614;13.830;2022-07-23T10:55:46;8.27;;;7.40;;
7213;SDS011;3648;50.614;13.830;2022-07-23T10:58:20;7.40;;;6.57;;
7213;SDS011;3648;50.614;13.830;2022-07-23T11:00:49;7.37;;;6.77;;
7213;SDS011;3648;50.614;13.830;2022-07-23T11:03:33;7.77;;;7.07;;
7213;SDS011;3648;50.614;13.830;2022-07-23T11:06:03;7.80;;;7.10;;
7213;SDS011;3648;50.614;13.830;2022-07-23T11:08:31;7.87;;;7.13;;
7213;SDS011;3648;50.614;13.830;2022-07-23T11:11:10;7.77;;;7.07;;
7213;SDS011;3648;50.614;13.830;2022-07-23T11:13:47;7.40;;;6.80;;
7213;SDS011;3648;50.614;13.830;2022-07-23T11:16:21;7.77;;;6.77;;
7213;SDS011;3648;50.614;13.830;2022-07-23T11:19:05;8.73;;;7.43;;
7213;SDS011;3648;50.614;13.830;2022-07-23T11:21:40;7.80;;;6.93;;
7213;SDS011;3648;50.614;13.830;2022-07-23T11:24:12;7.87;;;7.07;;
7213;SDS011;3648;50.614;13.830;2022-07-23T11:26:42;7.73;;;7.13;;
7213;SDS011;3648;50.614;13.830;2022-07-23T11:32:05;10.13;;;6.47;;
7213;SDS011;3648;50.614;13.830;2022-07-23T11:34:35;6.30;;;5.80;;
7213;SDS011;3648;50.614;13.830;2022-07-23T11:37:08;6.77;;;6.17;;
7213;SDS011;3648;50.614;13.830;2022-07-23T11:39:37;6.57;;;5.90;;
7213;SDS011;3648;50.614;13.830;2022-07-23T11:42:06;7.10;;;6.40;;
7213;SDS011;3648;50.614;13.830;2022-07-23T11:44:34;7.00;;;6.30;;
7213;SDS011;3648;50.614;13.830;2022-07-23T11:47:03;6.87;;;6.27;;
7213;SDS011;3648;50.614;13.830;2022-07-23T11:49:31;6.60;;;6.00;;
7213;SDS011;3648;50.614;13.830;2022-07-23T11:52:03;6.47;;;5.87;;
7213;SDS011;3648;50.614;13.830;2022-07-23T11:54:31;7.37;;;6.60;;
7213;SDS011;3648;50.614;13.830;2022-07-23T11:56:59;6.87;;;6.27;;
7213;SDS011;3648;50.614;13.830;2022-07-23T11:59:29;6.40;;;5.90;;
7213;SDS011;3648;50.614;13.830;2022-07-23T12:01:59;7.40;;;6.80;;
7213;SDS011;3648;50.614;13.830;2022-07-23T12:04:36;6.50;;;6.00;;
7213;SDS011;3648;50.614;13.830;2022-07-23T12:07:04;7.10;;;6.40;;
7213;SDS011;3648;50.614;13.830;2022-07-23T12:09:46;6.23;;;5.73;;
7213;SDS011;3648;50.614;13.830;2022-07-23T12:12:13;6.37;;;5.77;;
7213;SDS011;3648;50.614;13.830;2022-07-23T12:14:48;5.60;;;5.10;;
7213;SDS011;3648;50.614;13.830;2022-07-23T12:17:20;6.23;;;5.73;;
7213;SDS011;3648;50.614;13.830;2022-07-23T12:19:47;5.53;;;5.13;;
7213;SDS011;3648;50.614;13.830;2022-07-23T12:22:14;5.37;;;4.97;;
7213;SDS011;3648;50.614;13.830;2022-07-23T12:24:55;6.23;;;5.63;;
7213;SDS011;3648;50.614;13.830;2022-07-23T12:27:23;5.90;;;5.40;;
7213;SDS011;3648;50.614;13.830;2022-07-23T12:29:53;5.10;;;4.70;;
7213;SDS011;3648;50.614;13.830;2022-07-23T12:32:21;6.43;;;5.40;;
7213;SDS011;3648;50.614;13.830;2022-07-23T12:34:49;5.20;;;4.80;;
7213;SDS011;3648;50.614;13.830;2022-07-23T12:37:30;5.67;;;5.17;;
7213;SDS011;3648;50.614;13.830;2022-07-23T12:39:58;5.90;;;5.40;;
7213;SDS011;3648;50.614;13.830;2022-07-23T12:42:45;5.77;;;5.27;;
7213;SDS011;3648;50.614;13.830;2022-07-23T12:45:14;5.50;;;5.07;;
7213;SDS011;3648;50.614;13.830;2022-07-23T12:47:52;5.93;;;5.33;;
7213;SDS011;3648;50.614;13.830;2022-07-23T12:50:30;5.23;;;4.83;;
7213;SDS011;3648;50.614;13.830;2022-07-23T12:53:09;5.60;;;5.20;;
7213;SDS011;3648;50.614;13.830;2022-07-23T12:55:38;5.37;;;4.97;;
7213;SDS011;3648;50.614;13.830;2022-07-23T12:58:10;5.43;;;5.03;;
7213;SDS011;3648;50.614;13.830;2022-07-23T13:00:59;6.20;;;5.60;;
7213;SDS011;3648;50.614;13.830;2022-07-23T13:03:30;6.37;;;5.43;;
7213;SDS011;3648;50.614;13.830;2022-07-23T13:05:59;5.90;;;5.40;;
7213;SDS011;3648;50.614;13.830;2022-07-23T13:08:28;5.73;;;5.33;;
7213;SDS011;3648;50.614;13.830;2022-07-23T13:10:57;5.50;;;4.73;;
7213;SDS011;3648;50.614;13.830;2022-07-23T13:13:26;5.27;;;4.83;;
7213;SDS011;3648;50.614;13.830;2022-07-23T13:15:54;6.07;;;5.57;;
7213;SDS011;3648;50.614;13.830;2022-07-23T13:18:24;5.53;;;4.93;;
7213;SDS011;3648;50.614;13.830;2022-07-23T13:20:51;5.70;;;5.20;;
7213;SDS011;3648;50.614;13.830;2022-07-23T13:23:19;6.20;;;5.70;;
7213;SDS011;3648;50.614;13.830;2022-07-23T13:25:46;6.30;;;5.80;;
7213;SDS011;3648;50.614;13.830;2022-07-23T13:28:14;5.90;;;5.40;;
7213;SDS011;3648;50.614;13.830;2022-07-23T13:30:42;5.67;;;5.20;;
7213;SDS011;3648;50.614;13.830;2022-07-23T13:33:10;5.33;;;4.93;;
7213;SDS011;3648;50.614;13.830;2022-07-23T13:35:38;5.70;;;5.10;;
7213;SDS011;3648;50.614;13.830;2022-07-23T13:38:05;6.00;;;5.50;;
7213;SDS011;3648;50.614;13.830;2022-07-23T13:40:34;6.60;;;5.70;;
7213;SDS011;3648;50.614;13.830;2022-07-23T13:43:03;6.47;;;5.93;;
7213;SDS011;3648;50.614;13.830;2022-07-23T13:45:30;6.17;;;5.57;;
7213;SDS011;3648;50.614;13.830;2022-07-23T13:47:58;6.27;;;5.70;;
7213;SDS011;3648;50.614;13.830;2022-07-23T13:50:25;6.40;;;5.83;;
7213;SDS011;3648;50.614;13.830;2022-07-23T13:52:53;7.77;;;5.73;;
7213;SDS011;3648;50.614;13.830;2022-07-23T13:55:20;5.40;;;5.00;;
7213;SDS011;3648;50.614;13.830;2022-07-23T13:57:47;4.93;;;4.53;;
7213;SDS011;3648;50.614;13.830;2022-07-23T14:00:14;5.53;;;5.03;;
7213;SDS011;3648;50.614;13.830;2022-07-23T14:02:41;6.87;;;4.73;;
7213;SDS011;3648;50.614;13.830;2022-07-23T14:05:08;5.13;;;4.60;;
7213;SDS011;3648;50.614;13.830;2022-07-23T14:07:37;6.90;;;5.10;;
7213;SDS011;3648;50.614;13.830;2022-07-23T14:10:07;8.33;;;5.27;;
7213;SDS011;3648;50.614;13.830;2022-07-23T14:12:34;5.10;;;4.60;;
7213;SDS011;3648;50.614;13.830;2022-07-23T14:15:02;7.63;;;4.70;;
7213;SDS011;3648;50.614;13.830;2022-07-23T14:17:30;5.30;;;4.90;;
7213;SDS011;3648;50.614;13.830;2022-07-23T14:19:58;5.00;;;4.60;;
7213;SDS011;3648;50.614;13.830;2022-07-23T14:22:25;5.03;;;4.63;;
7213;SDS011;3648;50.614;13.830;2022-07-23T14:24:52;7.07;;;5.20;;
7213;SDS011;3648;50.614;13.830;2022-07-23T14:27:20;5.40;;;4.90;;
7213;SDS011;3648;50.614;13.830;2022-07-23T14:29:47;5.73;;;4.50;;
7213;SDS011;3648;50.614;13.830;2022-07-23T14:32:14;5.10;;;4.63;;
7213;SDS011;3648;50.614;13.830;2022-07-23T14:34:41;5.17;;;4.77;;
7213;SDS011;3648;50.614;13.830;2022-07-23T14:37:09;6.97;;;5.07;;
7213;SDS011;3648;50.614;13.830;2022-07-23T14:39:37;6.13;;;5.53;;
7213;SDS011;3648;50.614;13.830;2022-07-23T14:42:04;5.27;;;4.77;;
7213;SDS011;3648;50.614;13.830;2022-07-23T14:44:33;5.60;;;5.00;;
7213;SDS011;3648;50.614;13.830;2022-07-23T14:47:01;5.83;;;5.27;;
7213;SDS011;3648;50.614;13.830;2022-07-23T14:49:29;5.90;;;5.07;;
7213;SDS011;3648;50.614;13.830;2022-07-23T14:51:56;6.10;;;4.97;;
7213;SDS011;3648;50.614;13.830;2022-07-23T14:54:25;5.77;;;5.23;;
7213;SDS011;3648;50.614;13.830;2022-07-23T14:56:54;5.73;;;5.23;;
7213;SDS011;3648;50.614;13.830;2022-07-23T14:59:21;5.73;;;5.13;;
7213;SDS011;3648;50.614;13.830;2022-07-23T15:01:50;4.77;;;4.33;;
7213;SDS011;3648;50.614;13.830;2022-07-23T15:04:19;5.90;;;5.17;;
7213;SDS011;3648;50.614;13.830;2022-07-23T15:06:46;6.23;;;5.07;;
7213;SDS011;3648;50.614;13.830;2022-07-23T15:09:13;6.40;;;5.90;;
7213;SDS011;3648;50.614;13.830;2022-07-23T15:11:41;6.33;;;5.73;;
7213;SDS011;3648;50.614;13.830;2022-07-23T15:14:08;6.03;;;5.43;;